createdAt,value
2022-11-04T00:01:54.449Z,13.84
2022-11-04T00:04:24.775Z,13.85
2022-11-04T00:06:55.158Z,13.89
2022-11-04T00:09:25.620Z,13.92
2022-11-04T00:12:11.525Z,13.99
2022-11-04T00:14:42.975Z,14.01
2022-11-04T00:17:22.038Z,14.04
2022-11-04T00:20:09.719Z,14.09
2022-11-04T00:22:58.119Z,14.16
2022-11-04T00:25:45.128Z,14.23
2022-11-04T00:28:33.479Z,14.33
2022-11-04T00:31:24.071Z,14.41
2022-11-04T00:33:53.202Z,14.47
2022-11-04T00:36:22.824Z,14.54
2022-11-04T00:38:53.379Z,14.55
2022-11-04T00:41:28.794Z,14.51
2022-11-04T00:43:58.598Z,14.52
2022-11-04T00:46:27.507Z,14.54
2022-11-04T00:48:55.895Z,14.58
2022-11-04T00:51:24.585Z,14.63
2022-11-04T00:53:54.847Z,14.65
2022-11-04T00:56:23.450Z,14.69
2022-11-04T00:58:51.871Z,14.74
2022-11-04T01:01:21.146Z,14.78
2022-11-04T01:03:51.396Z,14.82
2022-11-04T01:06:21.706Z,14.86
2022-11-04T01:08:50.099Z,14.89
2022-11-04T01:11:19.855Z,14.91
2022-11-04T01:13:51.682Z,14.93
2022-11-04T01:16:20.579Z,14.95
2022-11-04T01:18:49.386Z,14.98
2022-11-04T01:21:18.712Z,14.88
2022-11-04T01:23:47.726Z,14.88
2022-11-04T01:26:18.405Z,14.88
2022-11-04T01:28:48.554Z,14.90
2022-11-04T01:31:21.186Z,14.94
2022-11-04T01:33:50.095Z,14.98
2022-11-04T01:36:19.330Z,15.03
2022-11-04T01:38:47.689Z,15.06
2022-11-04T01:41:19.743Z,15.08
2022-11-04T01:43:53.241Z,15.11
2022-11-04T01:46:32.588Z,15.15
2022-11-04T01:49:05.625Z,15.19
2022-11-04T01:51:37.967Z,15.19
2022-11-04T01:54:09.488Z,15.23
2022-11-04T01:56:38.944Z,15.28
2022-11-04T01:59:13.551Z,15.30
2022-11-04T02:01:42.218Z,15.31
2022-11-04T02:04:27.443Z,15.36
2022-11-04T02:06:57.915Z,15.39
2022-11-04T02:09:28.663Z,15.45
2022-11-04T02:12:14.548Z,15.48
2022-11-04T02:14:45.802Z,15.50
2022-11-04T02:17:28.422Z,15.52
2022-11-04T02:20:10.235Z,15.59
2022-11-04T02:23:00.199Z,15.61
2022-11-04T02:25:52.320Z,15.65
2022-11-04T02:28:52.123Z,15.63
2022-11-04T02:31:32.422Z,15.68
2022-11-04T02:34:10.953Z,15.64
2022-11-04T02:36:48.391Z,15.66
2022-11-04T02:39:26.716Z,15.69
2022-11-04T02:41:58.869Z,15.69
2022-11-04T02:44:34.144Z,15.73
2022-11-04T02:47:09.425Z,15.81
2022-11-04T02:49:45.274Z,15.81
2022-11-04T02:52:19.894Z,15.77
2022-11-04T02:54:52.073Z,15.88
2022-11-04T02:57:23.571Z,15.86
2022-11-04T02:59:58.289Z,15.88
2022-11-04T03:02:33.071Z,15.85
2022-11-04T03:05:04.460Z,15.91
2022-11-04T03:07:37.636Z,15.95
2022-11-04T03:10:12.717Z,15.97
2022-11-04T03:12:46.110Z,16.02
2022-11-04T03:15:20.736Z,16.03
2022-11-04T03:17:55.795Z,16.05
2022-11-04T03:20:27.600Z,16.07
2022-11-04T03:22:59.888Z,16.10
2022-11-04T03:25:33.457Z,16.09
2022-11-04T03:28:09.703Z,16.12
2022-11-04T03:30:43.854Z,16.14
2022-11-04T03:33:20.523Z,16.18
2022-11-04T03:35:49.261Z,16.22
2022-11-04T03:38:18.707Z,16.23
2022-11-04T03:40:47.194Z,16.20
2022-11-04T03:43:19.466Z,16.22
2022-11-04T03:45:48.914Z,16.23
2022-11-04T03:48:18.810Z,16.25
2022-11-04T03:50:49.174Z,16.26
2022-11-04T03:53:22.884Z,16.24
2022-11-04T03:56:09.081Z,16.28
2022-11-04T03:58:45.893Z,16.35
2022-11-04T04:01:28.201Z,16.38
2022-11-04T04:04:03.705Z,16.41
2022-11-04T04:06:36.352Z,16.40
2022-11-04T04:09:14.544Z,16.42
2022-11-04T04:11:46.717Z,16.40
2022-11-04T04:14:39.169Z,16.41
2022-11-04T04:17:12.512Z,16.42
2022-11-04T04:19:46.139Z,16.35
2022-11-04T04:22:18.263Z,16.32
2022-11-04T04:25:07.674Z,16.38
2022-11-04T04:27:36.824Z,16.39
2022-11-04T04:30:08.555Z,16.39
2022-11-04T04:32:40.496Z,16.36
2022-11-04T04:35:28.576Z,16.38
2022-11-04T04:38:19.938Z,16.40
2022-11-04T04:41:32.540Z,16.42
2022-11-04T04:44:18.944Z,16.47
2022-11-04T04:46:51.720Z,16.46
2022-11-04T04:49:20.026Z,16.43
2022-11-04T04:51:50.009Z,16.45
2022-11-04T04:54:18.292Z,16.47
2022-11-04T04:56:49.636Z,16.48
2022-11-04T04:59:18.130Z,16.46
2022-11-04T05:01:46.419Z,16.49
2022-11-04T05:04:14.726Z,16.47
2022-11-04T05:06:43.175Z,16.46
2022-11-04T05:09:12.733Z,16.48
2022-11-04T05:11:40.992Z,16.48
2022-11-04T05:14:09.589Z,16.50
2022-11-04T05:16:40.764Z,16.51
2022-11-04T05:19:09.538Z,16.51
2022-11-04T05:21:38.017Z,16.52
2022-11-04T05:24:06.479Z,16.51
2022-11-04T05:26:36.403Z,16.49
2022-11-04T05:29:04.689Z,16.49
2022-11-04T05:31:32.878Z,16.47
2022-11-04T05:34:01.367Z,16.50
2022-11-04T05:36:29.612Z,16.50
2022-11-04T05:38:57.797Z,16.50
2022-11-04T05:41:28.994Z,16.50
2022-11-04T05:44:00.207Z,16.53
2022-11-04T05:46:30.238Z,16.52
2022-11-04T05:48:59.327Z,16.52
2022-11-04T05:51:29.695Z,16.55
2022-11-04T05:53:59.068Z,16.56
2022-11-04T05:56:27.954Z,16.56
2022-11-04T05:58:58.444Z,16.52
2022-11-04T06:01:31.938Z,16.50
2022-11-04T06:04:02.026Z,16.54
2022-11-04T06:06:32.657Z,16.52
2022-11-04T06:09:01.745Z,16.52
2022-11-04T06:11:31.326Z,16.55
2022-11-04T06:14:01.490Z,16.54
2022-11-04T06:16:29.923Z,16.52
2022-11-04T06:19:01.579Z,16.51
2022-11-04T06:21:35.490Z,16.53
2022-11-04T06:24:04.385Z,16.53
2022-11-04T06:26:32.510Z,16.52
2022-11-04T06:29:02.441Z,16.52
2022-11-04T06:31:30.717Z,16.51
2022-11-04T06:33:59.018Z,16.54
2022-11-04T06:36:27.496Z,16.56
2022-11-04T06:38:59.929Z,16.56
2022-11-04T06:41:31.637Z,16.60
2022-11-04T06:43:59.909Z,16.62
2022-11-04T06:46:34.845Z,16.61
2022-11-04T06:49:03.729Z,16.63
2022-11-04T06:51:32.403Z,16.63
2022-11-04T06:54:00.741Z,16.66
2022-11-04T06:56:29.208Z,16.70
2022-11-04T06:58:58.447Z,16.73
2022-11-04T07:01:30.799Z,16.75
2022-11-04T07:04:01.503Z,16.78
2022-11-04T07:06:30.691Z,16.80
2022-11-04T07:09:00.827Z,16.77
2022-11-04T07:11:31.758Z,16.76
2022-11-04T07:14:00.159Z,16.75
2022-11-04T07:16:30.076Z,16.74
2022-11-04T07:18:58.368Z,16.77
2022-11-04T07:21:26.593Z,16.82
2022-11-04T07:23:55.006Z,16.83
2022-11-04T07:26:23.341Z,16.84
2022-11-04T07:28:52.895Z,16.84
2022-11-04T07:31:22.232Z,16.82
2022-11-04T07:33:51.823Z,16.84
2022-11-04T07:36:21.017Z,16.84
2022-11-04T07:38:49.908Z,16.86
2022-11-04T07:41:19.737Z,16.89
2022-11-04T07:43:51.634Z,16.88
2022-11-04T07:46:21.322Z,16.92
2022-11-04T07:48:50.980Z,16.94
2022-11-04T07:51:24.152Z,16.89
2022-11-04T07:53:52.429Z,16.88
2022-11-04T07:56:21.126Z,16.86
2022-11-04T07:58:49.296Z,16.85
2022-11-04T08:01:20.190Z,16.82
2022-11-04T08:03:49.991Z,16.86
2022-11-04T08:06:21.516Z,16.89
2022-11-04T08:08:50.286Z,16.88
2022-11-04T08:11:20.990Z,16.87
2022-11-04T08:13:49.622Z,16.82
2022-11-04T08:16:20.872Z,16.91
2022-11-04T08:18:51.593Z,16.89
2022-11-04T08:21:22.236Z,16.88
2022-11-04T08:23:51.650Z,16.85
2022-11-04T08:26:21.356Z,16.85
2022-11-04T08:28:50.255Z,16.88
2022-11-04T08:31:22.615Z,16.91
2022-11-04T08:33:51.400Z,16.86
2022-11-04T08:36:22.756Z,16.89
2022-11-04T08:38:52.022Z,16.84
2022-11-04T08:41:25.387Z,16.91
2022-11-04T08:43:54.473Z,16.90
2022-11-04T08:46:22.647Z,16.89
2022-11-04T08:48:51.001Z,16.87
2022-11-04T08:51:23.932Z,16.85
2022-11-04T08:53:53.049Z,16.85
2022-11-04T08:56:23.814Z,17.00
2022-11-04T08:58:52.342Z,17.05
2022-11-04T09:01:21.337Z,17.14
2022-11-04T09:03:50.836Z,17.27
2022-11-04T09:06:20.762Z,17.21
2022-11-04T09:08:50.909Z,17.30
2022-11-04T09:11:19.466Z,17.35
2022-11-04T09:13:48.004Z,17.36
2022-11-04T09:16:16.902Z,17.49
2022-11-04T09:18:45.501Z,17.62
2022-11-04T09:21:13.785Z,17.75
2022-11-04T09:23:42.046Z,17.88
2022-11-04T09:26:13.991Z,17.91
2022-11-04T09:28:43.117Z,17.96
2022-11-04T09:31:14.799Z,18.00
2022-11-04T09:33:43.682Z,18.00
2022-11-04T09:36:14.165Z,17.84
2022-11-04T09:38:43.310Z,17.90
2022-11-04T09:41:43.282Z,17.98
2022-11-04T09:44:22.235Z,17.94
2022-11-04T09:46:53.781Z,17.95
2022-11-04T09:49:23.469Z,17.99
2022-11-04T09:51:54.969Z,17.97
2022-11-04T09:54:26.731Z,17.99
2022-11-04T09:57:01.092Z,18.02
2022-11-04T09:59:33.161Z,17.96
2022-11-04T10:02:22.134Z,17.94
2022-11-04T10:05:04.010Z,17.88
2022-11-04T10:07:49.486Z,17.90
2022-11-04T10:10:25.648Z,17.87
2022-11-04T10:13:10.257Z,17.81
2022-11-04T10:15:54.963Z,17.78
2022-11-04T10:18:40.547Z,17.77
2022-11-04T10:21:22.664Z,17.67
2022-11-04T10:24:07.794Z,17.70
2022-11-04T10:26:45.587Z,17.69
2022-11-04T10:29:17.935Z,17.60
2022-11-04T10:31:48.349Z,17.51
2022-11-04T10:34:27.687Z,17.48
2022-11-04T10:36:58.596Z,17.51
2022-11-04T10:39:30.232Z,17.53
2022-11-04T10:41:59.412Z,17.50
2022-11-04T10:44:31.320Z,17.47
2022-11-04T10:47:08.898Z,17.48
2022-11-04T10:50:22.316Z,17.45
2022-11-04T10:52:43.026Z,17.43
2022-11-04T10:55:27.997Z,17.48
2022-11-04T10:57:58.646Z,17.51
2022-11-04T11:00:40.069Z,17.54
2022-11-04T11:03:28.291Z,17.58
2022-11-04T11:06:14.137Z,17.61
2022-11-04T11:08:45.049Z,17.63
2022-11-04T11:11:15.401Z,17.60
2022-11-04T11:13:46.597Z,17.53
2022-11-04T11:16:19.925Z,17.53
2022-11-04T11:19:15.482Z,17.53
2022-11-04T11:21:45.674Z,17.49
2022-11-04T11:24:21.823Z,17.47
2022-11-04T11:26:53.028Z,17.48
2022-11-04T11:29:25.562Z,17.44
2022-11-04T11:31:57.766Z,17.42
2022-11-04T11:37:07.726Z,17.43
2022-11-04T11:39:37.247Z,17.40
2022-11-04T11:42:08.535Z,17.35
2022-11-04T11:44:44.690Z,17.32
2022-11-04T11:47:23.429Z,17.33
2022-11-04T11:50:08.382Z,17.32
2022-11-04T11:52:39.958Z,17.31
2022-11-04T11:55:17.134Z,17.30
2022-11-04T12:00:52.046Z,17.14
2022-11-04T12:09:37.805Z,17.05
2022-11-04T12:12:19.810Z,17.05
2022-11-04T12:15:04.349Z,17.04
2022-11-04T12:17:49.528Z,17.04
2022-11-04T12:20:31.774Z,17.08
2022-11-04T12:23:06.470Z,17.08
2022-11-04T12:25:44.296Z,17.14
2022-11-04T12:28:25.699Z,17.12
2022-11-04T12:31:08.603Z,17.19
2022-11-04T12:33:41.598Z,17.21
2022-11-04T12:36:39.688Z,17.28
2022-11-04T12:39:24.107Z,17.29
2022-11-04T12:42:20.547Z,17.30
2022-11-04T12:44:58.926Z,17.33
2022-11-04T12:47:36.626Z,17.35
2022-11-04T12:50:16.024Z,17.36
2022-11-04T12:53:00.407Z,17.37
2022-11-04T12:55:43.337Z,17.41
2022-11-04T12:58:24.915Z,17.48
2022-11-04T13:00:59.947Z,17.51
2022-11-04T13:03:34.275Z,17.52
2022-11-04T13:06:07.049Z,17.61
2022-11-04T13:08:42.317Z,17.68
2022-11-04T13:11:23.694Z,17.74
2022-11-04T13:14:01.985Z,17.82
2022-11-04T13:16:32.823Z,18.00
2022-11-04T13:19:02.535Z,18.11
2022-11-04T13:21:37.331Z,18.20
2022-11-04T13:24:30.371Z,18.27
2022-11-04T13:27:02.943Z,18.45
2022-11-04T13:29:34.670Z,18.33
2022-11-04T13:32:06.914Z,18.32
2022-11-04T13:34:43.600Z,18.37
2022-11-04T13:37:22.008Z,18.37
2022-11-04T13:39:56.019Z,18.36
2022-11-04T13:42:52.595Z,18.23
2022-11-04T13:45:21.757Z,18.20
2022-11-04T13:47:54.069Z,18.22
2022-11-04T13:50:33.072Z,18.21
2022-11-04T13:53:01.607Z,18.12
2022-11-04T13:55:31.677Z,18.07
2022-11-04T13:58:02.729Z,18.02
2022-11-04T14:00:31.768Z,17.92
2022-11-04T14:03:01.869Z,17.86
2022-11-04T14:06:03.741Z,17.87
2022-11-04T14:08:32.931Z,17.90
2022-11-04T14:11:13.856Z,17.78
2022-11-04T14:14:11.918Z,17.80
2022-11-04T14:16:45.303Z,17.76
2022-11-04T14:19:56.999Z,17.69
2022-11-04T14:22:32.335Z,17.71
2022-11-04T14:25:03.206Z,17.66
2022-11-04T14:27:41.636Z,17.64
2022-11-04T14:30:33.278Z,17.67
2022-11-04T14:33:04.468Z,17.71
2022-11-04T14:35:34.236Z,17.70
2022-11-04T14:38:25.700Z,17.62
2022-11-04T14:41:14.540Z,17.55
2022-11-04T14:43:47.698Z,17.51
2022-11-04T14:46:23.660Z,17.49
2022-11-04T14:48:54.640Z,17.47
2022-11-04T14:51:27.764Z,17.43
2022-11-04T14:54:04.715Z,17.43
2022-11-04T14:56:34.011Z,17.34
2022-11-04T14:59:06.351Z,17.30
2022-11-04T15:01:38.542Z,17.31
2022-11-04T15:04:20.073Z,17.30
2022-11-04T15:06:55.785Z,17.31
2022-11-04T15:09:26.756Z,17.23
2022-11-04T15:12:24.913Z,17.18
2022-11-04T15:14:54.481Z,17.14
2022-11-04T15:17:26.550Z,17.10
2022-11-04T15:19:59.633Z,17.07
2022-11-04T15:22:30.625Z,17.01
2022-11-04T15:25:03.487Z,16.99
2022-11-04T15:27:34.435Z,16.96
2022-11-04T15:30:07.144Z,16.92
2022-11-04T15:32:36.047Z,16.84
2022-11-04T15:35:05.177Z,16.80
2022-11-04T15:37:44.923Z,16.68
2022-11-04T15:40:17.750Z,16.65
2022-11-04T15:42:50.749Z,16.68
2022-11-04T15:45:30.957Z,16.68
2022-11-04T15:48:31.643Z,16.69
2022-11-04T15:51:16.026Z,16.65
2022-11-04T15:53:54.824Z,16.59
2022-11-04T15:56:29.387Z,16.53
2022-11-04T15:59:16.536Z,16.47
2022-11-04T16:01:54.767Z,16.47
2022-11-04T16:04:32.027Z,16.40
2022-11-04T16:07:07.845Z,16.39
2022-11-04T16:09:48.230Z,16.35
2022-11-04T16:12:21.690Z,16.31
2022-11-04T16:14:55.334Z,16.27
2022-11-04T16:17:32.025Z,16.22
2022-11-04T16:20:06.751Z,16.22
2022-11-04T16:22:38.975Z,16.17
2022-11-04T16:25:22.508Z,16.14
2022-11-04T16:27:51.974Z,16.14
2022-11-04T16:30:23.460Z,16.13
2022-11-04T16:33:10.839Z,16.13
2022-11-04T16:35:43.152Z,16.13
2022-11-04T16:38:12.203Z,16.15
2022-11-04T16:40:53.445Z,16.14
2022-11-04T16:43:31.221Z,16.12
2022-11-04T16:46:06.675Z,16.12
2022-11-04T16:48:40.936Z,16.12
2022-11-04T16:51:16.692Z,16.11
2022-11-04T16:53:49.750Z,16.10
2022-11-04T16:56:40.619Z,16.08
2022-11-04T16:59:11.528Z,16.08
2022-11-04T17:01:40.622Z,16.03
2022-11-04T17:04:10.683Z,15.96
2022-11-04T17:06:39.290Z,15.94
2022-11-04T17:09:18.114Z,15.90
2022-11-04T17:11:46.402Z,15.88
2022-11-04T17:14:16.411Z,15.86
2022-11-04T17:16:45.419Z,15.85
2022-11-04T17:19:17.816Z,15.83
2022-11-04T17:21:46.898Z,15.78
2022-11-04T17:24:15.538Z,15.74
2022-11-04T17:26:43.735Z,15.70
2022-11-04T17:29:17.103Z,15.69
2022-11-04T17:31:46.123Z,15.67
2022-11-04T17:34:14.554Z,15.61
2022-11-04T17:36:44.162Z,15.60
2022-11-04T17:39:12.288Z,15.56
2022-11-04T17:41:58.211Z,15.53
2022-11-04T17:44:26.372Z,15.56
2022-11-04T17:46:54.879Z,15.55
2022-11-04T17:49:25.911Z,15.53
2022-11-04T17:51:58.193Z,15.52
2022-11-04T17:54:29.269Z,15.49
2022-11-04T17:56:57.885Z,15.48
2022-11-04T17:59:26.336Z,15.47
2022-11-04T18:01:54.728Z,15.46
2022-11-04T18:04:24.445Z,15.48
2022-11-04T18:06:55.082Z,15.47
2022-11-04T18:09:28.469Z,15.44
2022-11-04T18:12:14.134Z,15.41
2022-11-04T18:14:42.763Z,15.42
2022-11-04T18:17:11.004Z,15.46
2022-11-04T18:19:39.363Z,15.48
2022-11-04T18:22:08.082Z,15.50
2022-11-04T18:24:38.105Z,15.50
2022-11-04T18:27:06.578Z,15.51
2022-11-04T18:29:35.388Z,15.51
2022-11-04T18:32:07.042Z,15.51
2022-11-04T18:34:35.733Z,15.53
2022-11-04T18:37:03.928Z,15.53
2022-11-04T18:39:32.310Z,15.58
2022-11-04T18:42:08.945Z,15.58
2022-11-04T18:44:37.938Z,15.56
2022-11-04T18:47:08.980Z,15.53
2022-11-04T18:49:37.172Z,15.52
2022-11-04T18:52:06.055Z,15.52
2022-11-04T18:54:34.650Z,15.50
2022-11-04T18:57:05.106Z,15.52
2022-11-04T18:59:33.583Z,15.50
2022-11-04T19:02:02.475Z,15.36
2022-11-04T19:04:31.016Z,15.33
2022-11-04T19:06:59.356Z,15.34
2022-11-04T19:12:35.539Z,15.43
2022-11-04T19:15:05.106Z,15.42
2022-11-04T19:17:35.998Z,15.41
2022-11-04T19:20:11.337Z,15.40
2022-11-04T19:22:40.767Z,15.40
2022-11-04T19:25:10.403Z,15.38
2022-11-04T19:27:40.024Z,15.40
2022-11-04T19:30:09.840Z,15.37
2022-11-04T19:32:38.234Z,15.37
2022-11-04T19:35:07.358Z,15.39
2022-11-04T19:37:35.852Z,15.39
2022-11-04T19:40:06.258Z,15.41
2022-11-04T19:42:52.138Z,15.40
2022-11-04T19:45:22.432Z,15.38
2022-11-04T19:47:50.786Z,15.43
2022-11-04T19:50:19.314Z,15.40
2022-11-04T19:52:48.062Z,15.46
2022-11-04T19:55:16.711Z,15.49
2022-11-04T19:57:45.119Z,15.49
2022-11-04T20:00:15.114Z,15.51
2022-11-04T20:02:45.461Z,15.52
2022-11-04T20:05:14.028Z,15.52
2022-11-04T20:07:42.621Z,15.51
2022-11-04T20:10:11.626Z,15.52
2022-11-04T20:12:57.769Z,15.53
2022-11-04T20:15:26.715Z,15.52
2022-11-04T20:17:56.841Z,15.52
2022-11-04T20:20:25.348Z,15.52
2022-11-04T20:22:53.996Z,15.53
2022-11-04T20:25:22.416Z,15.51
2022-11-04T20:27:50.839Z,15.52
2022-11-04T20:30:19.612Z,15.50
2022-11-04T20:32:47.959Z,15.49
2022-11-04T20:35:17.569Z,15.48
2022-11-04T20:37:47.076Z,15.48
2022-11-04T20:40:15.642Z,15.48
2022-11-04T20:42:47.833Z,15.51
2022-11-04T20:45:17.652Z,15.50
2022-11-04T20:47:46.139Z,15.47
2022-11-04T20:50:14.933Z,15.47
2022-11-04T20:52:44.875Z,15.44
2022-11-04T20:55:13.360Z,15.39
2022-11-04T20:57:41.741Z,15.39
2022-11-04T21:00:12.951Z,15.42
2022-11-04T21:02:41.323Z,15.42
2022-11-04T21:05:10.391Z,15.41
2022-11-04T21:07:41.910Z,15.40
2022-11-04T21:10:12.269Z,15.39
2022-11-04T21:12:40.505Z,15.40
2022-11-04T21:15:29.763Z,15.40
2022-11-04T21:17:58.396Z,15.41
2022-11-04T21:20:27.466Z,15.35
2022-11-04T21:22:55.760Z,15.24
2022-11-04T21:25:25.701Z,15.21
2022-11-04T21:27:54.066Z,15.20
2022-11-04T21:30:22.337Z,15.22
2022-11-04T21:32:50.768Z,15.22
2022-11-04T21:35:19.033Z,15.20
2022-11-04T21:37:47.372Z,15.16
2022-11-04T21:40:16.244Z,15.14
2022-11-04T21:42:45.932Z,15.06
2022-11-04T21:45:14.448Z,15.00
2022-11-04T21:47:43.242Z,15.12
2022-11-04T21:50:17.662Z,15.04
2022-11-04T21:52:47.196Z,15.13
2022-11-04T21:55:16.098Z,15.12
2022-11-04T21:57:45.736Z,15.09
2022-11-04T22:00:15.469Z,15.06
2022-11-04T22:02:47.325Z,15.11
2022-11-04T22:05:15.994Z,15.13
2022-11-04T22:08:01.887Z,15.13
2022-11-04T22:10:30.602Z,15.10
2022-11-04T22:13:00.717Z,15.08
2022-11-04T22:15:48.901Z,15.06
2022-11-04T22:18:17.543Z,15.04
2022-11-04T22:20:45.838Z,15.01
2022-11-04T22:23:14.185Z,14.95
2022-11-04T22:25:47.320Z,14.92
2022-11-04T22:28:20.893Z,14.90
2022-11-04T22:30:49.650Z,14.87
2022-11-04T22:33:18.100Z,14.84
2022-11-04T22:35:46.946Z,14.81
2022-11-04T22:38:15.442Z,14.78
2022-11-04T22:40:43.635Z,14.75
2022-11-04T22:43:12.205Z,14.70
2022-11-04T22:45:42.158Z,14.69
2022-11-04T22:48:10.444Z,14.61
2022-11-04T22:50:38.658Z,14.57
2022-11-04T22:53:07.388Z,14.52
2022-11-04T22:55:36.768Z,14.50
2022-11-04T22:58:06.470Z,14.47
2022-11-04T23:00:35.377Z,14.44
2022-11-04T23:03:05.356Z,14.42
2022-11-04T23:05:34.354Z,14.39
2022-11-04T23:08:03.296Z,14.38
2022-11-04T23:10:55.535Z,14.34
2022-11-04T23:13:41.734Z,14.30
2022-11-04T23:16:44.850Z,14.27
2022-11-04T23:19:15.048Z,14.21
2022-11-04T23:22:00.809Z,14.18
2022-11-04T23:24:46.671Z,14.18
2022-11-04T23:27:35.283Z,14.12
2022-11-04T23:30:25.324Z,14.09
2022-11-04T23:32:55.620Z,14.08
2022-11-04T23:35:45.523Z,14.07
2022-11-04T23:38:14.404Z,14.05
2022-11-04T23:41:03.695Z,14.03
2022-11-04T23:43:31.237Z,14.03
2022-11-04T23:46:28.900Z,13.99
2022-11-04T23:49:14.589Z,13.98
2022-11-04T23:52:02.365Z,13.94
2022-11-04T23:54:47.969Z,13.92
2022-11-04T23:57:36.032Z,13.88
